Waarschuwingen Drenthe

Code Groen. Er zijn momenteel geen waarschuwingen van kracht.

Bron: KNMI



Webcam op het Zuiden Meer informatie Webcam op het Zuiden


Webcam op het Westen Meer informatie Webcam op het Westen


Onweer radar Meer informatie blitzortung!


Regen radar  rain snow radar


Lokaal brand risico:
CBI


Regionaal brand risico: Meer informatie


Lokaal brand risico:
Gebaseerd op actuele waarde
CBI


Bezoek ook deze websites:

Template documentation
and downloads

And another site



METAR rapporten vliegvelden

   
ETWM - Meppen, Germany
Afstand tot: O 29 km
Gewijzigd: 26-09-2022 02:20
  
  
   Wind: ZZW 5.6 km/h
Wind: ZZW 5.6 km/h
Temperatuur: 10°C
Voelt als: 9°C
Dauwpunt: 8°C
Vochtigheid: 88%
Barometer: 1007 hPa
ETWM 260020Z AUTO 21003KT //// // ////// 10/08 Q1007 ///
EHGG - Groningen/Eelde, Netherlands
Afstand tot: NNW 47 km
Gewijzigd: 26-09-2022 01:55
Gedeeltelijk bewolkt  
Gedeeltelijk bewolkt  
   Wind: Zuiden 13 km/h
Wind: Zuiden 13 km/h
Temperatuur: 11°C
Dauwpunt: 9°C
Vochtigheid: 88%
Barometer: 1007 hPa
Bewolking: Gedeeltelijk bewolkt
Zicht: meer dan 10 km
Bewolking: Gedeeltelijk bewolkt
EHGG 252355Z AUTO 19007KT 9999 NSC 11/09 Q1007
EDDG - Muenster/Osnabru, Germany
Afstand tot: ZO 87 km
Gewijzigd: 26-09-2022 02:20
Helder  
Helder  
   Wind: Zuiden 13 km/h
Wind: Zuiden 13 km/h
Temperatuur: 10°C
Voelt als: 8°C
Dauwpunt: 8°C
Vochtigheid: 88%
Barometer: 1008 hPa
Zicht: meer dan 10 km
Bewolking: Helder
EDDG 260020Z AUTO 19007KT 160V220 CAVOK 10/08 Q1008 NOSIG
EHLW - Leeuwarden Rnlaf, Netherlands
Afstand tot: NW 93 km
Gewijzigd: 26-09-2022 02:25
Bewolking  
Bewolking  
   Wind: ZZW 16.7 km/h
Wind: ZZW 16.7 km/h
Temperatuur: 12°C
Dauwpunt: 9°C
Vochtigheid: 82%
Barometer: 1005 hPa
Bewolking: Bewolking
Zicht: meer dan 10 km
Bewolking: Licht bewolkt 3600 ft,
Grotendeels bewolkt 5700 ft,
Bewolking 7000 ft
EHLW 260025Z AUTO 20009KT 160V230 9999 FEW036 BKN057 OVC070 12/09 Q1005 BLU
ETNT - Wittmundhaven(Ga, Germany
Afstand tot: NNO 100 km
Gewijzigd: 26-09-2022 02:20
  
  
   Wind: Noorden 9.3 km/h
Wind: Noorden 9.3 km/h
Temperatuur: 10°C
Voelt als: 9°C
Dauwpunt: 8°C
Vochtigheid: 88%
Barometer: 1005 hPa
ETNT 260020Z AUTO 36005KT //// // ////// 10/08 Q1005 ///
ETND - Diepholz (ger-Af, Germany
Afstand tot: O 104 km
Gewijzigd: 23-09-2022 11:20
Verouderd
Grotendeels bewolkt  
Grotendeels bewolkt  
   Wind: Zuiden 11.1 km/h
Wind: Zuiden 11.1 km/h
Temperatuur: 15°C
Dauwpunt: 8°C
Vochtigheid: 63%
Barometer: 1016 hPa
Bewolking: Grotendeels bewolkt
Zicht: meer dan 10 km
Bewolking: Gedeeltelijk bewolkt 16000 ft,
Grotendeels bewolkt 27000 ft
ETND 230920Z 18006KT 9999 SCT160 BKN270 15/08 Q1016 BLU+
ETNT - Wittmundhaven(Ga, Germany
Afstand tot: NNO 102 km
Gewijzigd: 26-09-2022 02:20
  
  
   Wind: Noorden 9.3 km/h
Wind: Noorden 9.3 km/h
Temperatuur: 10°C
Voelt als: 9°C
Dauwpunt: 8°C
Vochtigheid: 88%
Barometer: 1005 hPa
ETNT 260020Z AUTO 36005KT //// // ////// 10/08 Q1005 ///
EHDL - Deelen Rnlafb, Netherlands
Afstand tot: ZW 103 km
Gewijzigd: 26-09-2022 02:25
Bewolking  
Bewolking  
   Wind: Zuiden 11.1 km/h
Wind: Zuiden 11.1 km/h
Temperatuur: 10°C
Voelt als: 8°C
Dauwpunt: 9°C
Vochtigheid: 94%
Barometer: 1008 hPa
Bewolking: Bewolking
Zicht: meer dan 10 km
Bewolking: Licht bewolkt 3000 ft,
Gedeeltelijk bewolkt 4800 ft,
Bewolking 6100 ft
EHDL 260025Z AUTO 19006KT 140V240 9999 FEW030 SCT048 OVC061 10/09 Q1008 BLU
EHMA - Awg-1 Sea, Netherlands
Afstand tot: NW 105 km
Gewijzigd: 26-09-2022 01:55
Lichte (mot)regen, Grotendeels bewolkt  
Lichte (mot)regen, Grotendeels bewolkt  
   Wind: varieert 37 km/h
Wind: varieert 37 km/h
Temperatuur: 13°C
Dauwpunt: 9°C
Vochtigheid: 77%
Barometer: 1005 hPa
Bewolking: Grotendeels bewolkt
Zicht: meer dan 10 km
Bewolking: Licht bewolkt 2500 ft,
Gedeeltelijk bewolkt 3700 ft,
Grotendeels bewolkt 4200 ft
EHMA 252355Z AUTO VRB20KT 9999 -DZ FEW025 SCT037 BKN042 13/09 Q1005 REDZ
EDDW - Bremen, Germany
Afstand tot: ONO 135 km
Gewijzigd: 26-09-2022 02:20
Helder  
Helder  
   Wind: ZZW 13 km/h
Wind: ZZW 13 km/h
Temperatuur: 9°C
Voelt als: 7°C
Dauwpunt: 8°C
Vochtigheid: 94%
Barometer: 1007 hPa
Zicht: meer dan 10 km
Bewolking: Helder
EDDW 260020Z AUTO 21007KT CAVOK 09/08 Q1007
EHVL - Vlieland Island, Netherlands
Afstand tot: WNW 138 km
Gewijzigd: 26-09-2022 02:25
Lichte (mot)regen, Grotendeels bewolkt  
Lichte (mot)regen, Grotendeels bewolkt  
   Wind: WZW 42.6 km/h
Wind: WZW 42.6 km/h
Temperatuur: 14°C
Dauwpunt: 9°C
Vochtigheid: 72%
Barometer: 1005 hPa
Bewolking: Grotendeels bewolkt
Zicht: meer dan 10 km
Bewolking: Licht bewolkt 3100 ft,
Gedeeltelijk bewolkt 4500 ft,
Grotendeels bewolkt 5800 ft
EHVL 260025Z AUTO 24023KT 9999 -DZ FEW031 SCT045 BKN058 14/09 Q1005 BLU
EDLV - Niederrhein, Germany
Afstand tot: ZZW 139 km
Gewijzigd: 26-09-2022 02:20
Bewolking  
Bewolking  
   Wind: Zuiden 9.3 km/h
Wind: Zuiden 9.3 km/h
Temperatuur: 10°C
Voelt als: 9°C
Dauwpunt: 9°C
Vochtigheid: 94%
Barometer: 1009 hPa
Bewolking: Bewolking
Zicht: meer dan 10 km
Bewolking: Licht bewolkt 6600 ft,
Bewolking 7600 ft
EDLV 260020Z AUTO 19005KT 9999 // FEW066/// OVC076/// 10/09 Q1009
EHKD - De Kooy (navy), Netherlands
Afstand tot: W 144 km
Gewijzigd: 26-09-2022 02:25
Grotendeels bewolkt  
Grotendeels bewolkt  
   Wind: WZW 29.6 km/h
Wind: WZW 29.6 km/h
Temperatuur: 15°C
Dauwpunt: 8°C
Vochtigheid: 63%
Barometer: 1006 hPa
Bewolking: Grotendeels bewolkt
Zicht: meer dan 10 km
Bewolking: Gedeeltelijk bewolkt 3200 ft,
Gedeeltelijk bewolkt 4200 ft,
Grotendeels bewolkt 5800 ft
EHKD 260025Z AUTO 25016KT 220V280 9999 SCT032 SCT042 BKN058 15/08 Q1006 BLU
EDLW - Dortmund/Wickede, Germany
Afstand tot: ZZO 150 km
Gewijzigd: 26-09-2022 02:20
Bewolking  
Bewolking  
   Wind: ZZW 14.8 km/h
Wind: ZZW 14.8 km/h
Temperatuur: 9°C
Voelt als: 7°C
Dauwpunt: 7°C
Vochtigheid: 87%
Barometer: 1010 hPa
Bewolking: Bewolking
Zicht: meer dan 10 km
Bewolking: Gedeeltelijk bewolkt 4700 ft,
Grotendeels bewolkt 5800 ft,
Bewolking 8200 ft
EDLW 260020Z AUTO 20008KT 9999 // SCT047/// BKN058/// OVC082/// 09/07 Q1010
EHVK - Volkel Rnlafb, Netherlands
Afstand tot: ZZW 149 km
Gewijzigd: 26-09-2022 02:25
Bewolking  
Bewolking  
   Wind: ZZW 13 km/h
Wind: ZZW 13 km/h
Temperatuur: 11°C
Dauwpunt: 8°C
Vochtigheid: 82%
Barometer: 1009 hPa
Bewolking: Bewolking
Zicht: meer dan 10 km
Bewolking: Gedeeltelijk bewolkt 6700 ft,
Bewolking 7300 ft
EHVK 260025Z AUTO 21007KT 9999 SCT067 OVC073 11/08 Q1009 BLU
EDLW - Dortmund/Wickede, Germany
Afstand tot: ZZO 150 km
Gewijzigd: 26-09-2022 02:20
Bewolking  
Bewolking  
   Wind: ZZW 14.8 km/h
Wind: ZZW 14.8 km/h
Temperatuur: 9°C
Voelt als: 7°C
Dauwpunt: 7°C
Vochtigheid: 87%
Barometer: 1010 hPa
Bewolking: Bewolking
Zicht: meer dan 10 km
Bewolking: Gedeeltelijk bewolkt 4700 ft,
Grotendeels bewolkt 5800 ft,
Bewolking 8200 ft
EDLW 260020Z AUTO 20008KT 9999 // SCT047/// BKN058/// OVC082/// 09/07 Q1010
EHMG - L9-Ff-1 Sea, Netherlands
Afstand tot: NW 155 km
Gewijzigd: 26-09-2022 01:55
Lichte regen, Regen, Grotendeels bewolkt  
Lichte regen, Regen, Grotendeels bewolkt  
   Wind: WZW 51.9 km/h
Wind: WZW 51.9 km/h
Temperatuur: 14°C
Dauwpunt: 10°C
Vochtigheid: 77%
Barometer: 1005 hPa
Bewolking: Grotendeels bewolkt
Zicht: 4 km
Bewolking: Licht bewolkt 1700 ft,
Gedeeltelijk bewolkt 3000 ft,
Grotendeels bewolkt 4300 ft
EHMG 252355Z AUTO 24028KT 3800 -SHRA FEW017CB SCT030 BKN043 14/10 Q1005 REDZ
ETHB - Buckeburg(Ger-Ar, Germany
Afstand tot: OZO 161 km
Gewijzigd: 26-09-2022 02:20
  
  
   Wind: ZW 9.3 km/h
Wind: ZW 9.3 km/h
Temperatuur: 10°C
Voelt als: 9°C
Dauwpunt: 7°C
Vochtigheid: 82%
Barometer: 1008 hPa
Zicht: meer dan 10 km
ETHB 260020Z AUTO 22005KT 9999 // ////// 10/07 Q1008 ///
ETMN - Nordholz (ger-Na, Germany
Afstand tot: NO 164 km
Gewijzigd: 26-09-2022 02:20
Grotendeels bewolkt  
Grotendeels bewolkt  
   Wind: ZZW 14.8 km/h
Wind: ZZW 14.8 km/h
Temperatuur: 10°C
Voelt als: 8°C
Dauwpunt: 8°C
Vochtigheid: 88%
Barometer: 1005 hPa
Bewolking: Grotendeels bewolkt
Zicht: meer dan 10 km
Bewolking: Grotendeels bewolkt 7500 ft
ETMN 260020Z 21008KT 9999 BKN075 10/08 Q1005 BLU
EDDL - Duesseldorf, Germany
Afstand tot: Z 165 km
Gewijzigd: 26-09-2022 02:20
Helder  
Helder  
   Wind: Zuiden 5.6 km/h
Wind: Zuiden 5.6 km/h
Temperatuur: 10°C
Voelt als: 9°C
Dauwpunt: 8°C
Vochtigheid: 88%
Barometer: 1010 hPa
Zicht: meer dan 10 km
Bewolking: Helder
EDDL 260020Z AUTO 18003KT 140V210 CAVOK 10/08 Q1010 NOSIG
EDLN - Monchengladbach, Germany
Afstand tot: Z 174 km
Gewijzigd: 26-09-2022 02:20
Bewolking  
Bewolking  
   Wind: ZZW 5.6 km/h
Wind: ZZW 5.6 km/h
Temperatuur: 10°C
Voelt als: 9°C
Dauwpunt: 9°C
Vochtigheid: 94%
Barometer: 1010 hPa
Bewolking: Bewolking
Zicht: meer dan 10 km
Bewolking: Licht bewolkt 4400 ft,
Bewolking 7600 ft
EDLN 260020Z AUTO 21003KT 170V250 9999 // FEW044/// OVC076/// 10/09 Q1010

Script ontwikkeld door  Saratoga-weather.org Aangepast voor de template door  Weerstation Leuven

U vindt ons ook hier:

Het Weer Aktueel

European Weather Network

Weather Underground

Wetterpage 24

Apparatuur in gebruik:

Weerstation
Davis VP2

Weerprogramma
Meteohub

Hardware
RaspberryPI, Wireless Weather Envoy, MeteoStick, TP-Link MR3020

Leverancier
Weerhuisje.nl weerstations

Davis VP2

Meteohub

RaspberryPI, Wireless Weather Envoy, MeteoStick, TP-Link MR3020

Weerhuisje.nl weerstations